Time;durP1;ratioP1;P1;durP2;ratioP2;P2;SDS_P1;SDS_P2;PMS_P1;PMS_P2;Temp;Humidity;BMP_temperature;BMP_pressure;BME280_temperature;BME280_humidity;BME280_pressure;Samples;Min_cycle;Max_cycle;Signal;HPM_P1;HPM_P2
2023/05/02 00:00:32;;;;;;;8.77;3.85;;;;;;;11.91;69.51;100594.22;5085827;28;20097;-32
2023/05/02 00:02:59;;;;;;;6.97;4.03;;;;;;;12.02;69.02;100601.56;5087999;28;20394;-31
2023/05/02 00:05:25;;;;;;;5.70;3.50;;;;;;;12.26;67.12;100613.34;5089505;28;20582;-33
2023/05/02 00:07:51;;;;;;;6.80;3.60;;;;;;;12.08;66.87;100606.03;5089453;28;20039;-31
2023/05/02 00:10:17;;;;;;;8.13;4.40;;;;;;;12.11;66.38;100605.59;5090112;28;20024;-32
2023/05/02 00:12:42;;;;;;;7.20;3.75;;;;;;;12.15;65.55;100609.47;5089690;28;20130;-33
2023/05/02 00:15:09;;;;;;;7.28;3.60;;;;;;;11.89;66.17;100591.78;5089422;28;20769;-32
2023/05/02 00:17:35;;;;;;;7.13;3.33;;;;;;;11.86;65.65;100605.53;5089745;28;20032;-31
2023/05/02 00:20:00;;;;;;;7.30;3.42;;;;;;;11.94;64.57;100605.31;5089800;28;20024;-31
2023/05/02 00:22:26;;;;;;;7.47;3.17;;;;;;;12.02;64.35;100607.72;5089397;28;20031;-32
2023/05/02 00:25:00;;;;;;;5.80;3.05;;;;;;;11.84;64.72;100604.91;5088949;28;20036;-32
2023/05/02 00:27:26;;;;;;;6.90;3.63;;;;;;;11.98;64.22;100614.53;5089385;28;20060;-31
2023/05/02 00:29:52;;;;;;;5.22;3.00;;;;;;;11.58;65.56;100612.00;5088984;28;20107;-32
2023/05/02 00:32:18;;;;;;;6.38;2.97;;;;;;;11.75;64.55;100615.03;5089193;28;20031;-33
2023/05/02 00:34:43;;;;;;;9.15;3.45;;;;;;;11.62;65.65;100613.22;5088946;28;20024;-33
2023/05/02 00:37:09;;;;;;;5.95;3.22;;;;;;;11.70;64.88;100624.72;5089032;28;20024;-31
2023/05/02 00:39:35;;;;;;;5.97;3.30;;;;;;;11.60;64.96;100606.47;5089053;28;20089;-32
2023/05/02 00:42:00;;;;;;;5.97;3.08;;;;;;;11.56;65.36;100623.94;5088859;28;20051;-31
2023/05/02 00:44:26;;;;;;;6.15;3.08;;;;;;;11.70;64.84;100616.69;5089120;28;20449;-36
2023/05/02 00:46:55;;;;;;;6.95;3.28;;;;;;;11.72;64.76;100617.31;5088788;28;20035;-33
2023/05/02 00:49:21;;;;;;;7.60;3.42;;;;;;;11.50;65.62;100620.25;5088858;28;20124;-33
2023/05/02 00:51:47;;;;;;;7.40;3.28;;;;;;;11.54;66.39;100626.00;5089014;28;20691;-33
2023/05/02 00:54:12;;;;;;;5.50;3.20;;;;;;;11.52;66.62;100623.53;5088868;28;20028;-32
2023/05/02 00:56:38;;;;;;;5.55;3.08;;;;;;;11.35;66.78;100627.72;5088853;28;20043;-31
2023/05/02 00:59:06;;;;;;;6.55;3.33;;;;;;;11.49;66.89;100633.84;5088580;28;20032;-32
2023/05/02 01:01:34;;;;;;;6.10;3.08;;;;;;;11.54;66.58;100629.50;5088763;28;20036;-32
2023/05/02 01:04:00;;;;;;;7.75;3.85;;;;;;;11.41;67.59;100629.56;5088695;28;20150;-32
2023/05/02 01:06:41;;;;;;;5.82;3.35;;;;;;;11.21;68.39;100627.75;5088348;28;20081;-31
2023/05/02 01:09:25;;;;;;;8.23;3.67;;;;;;;11.04;69.24;100631.91;5088419;28;20134;-31
2023/05/02 01:12:09;;;;;;;7.25;3.40;;;;;;;10.87;69.91;100636.88;5088149;28;20028;-32
2023/05/02 01:14:40;;;;;;;7.28;3.25;;;;;;;10.75;70.45;100620.66;5087654;28;20052;-31
2023/05/02 01:17:10;;;;;;;7.93;3.63;;;;;;;10.92;70.65;100639.72;5088223;28;20054;-31
2023/05/02 01:19:39;;;;;;;8.10;3.58;;;;;;;10.72;70.74;100623.72;5088444;28;21147;-35
2023/05/02 01:22:08;;;;;;;8.07;3.72;;;;;;;10.84;70.67;100631.91;5088162;28;20032;-37
2023/05/02 01:25:11;;;;;;;5.85;3.30;;;;;;;10.92;69.88;100638.91;5088318;28;20050;-31
2023/05/02 01:27:49;;;;;;;8.32;3.70;;;;;;;10.93;70.13;100635.19;5088093;28;20024;-31
2023/05/02 01:30:16;;;;;;;;;;;;;;;10.64;71.81;100637.25;5088790;28;20062;-32
2023/05/02 01:32:45;;;;;;;7.40;3.53;;;;;;;10.65;70.78;100639.72;5088281;28;19908;-32
2023/05/02 01:35:14;;;;;;;8.25;3.55;;;;;;;10.97;69.66;100641.75;5087885;28;20032;-31
2023/05/02 01:37:43;;;;;;;6.60;3.70;;;;;;;10.93;69.54;100635.19;5088153;28;20067;-31
2023/05/02 01:40:10;;;;;;;7.60;4.05;;;;;;;10.63;71.72;100646.31;5087703;28;20110;-32
2023/05/02 01:42:38;;;;;;;6.70;3.65;;;;;;;10.60;72.33;100646.69;5088127;28;20023;-34
2023/05/02 01:45:06;;;;;;;7.85;3.67;;;;;;;10.42;73.89;100644.63;5087762;28;20027;-33
2023/05/02 01:47:34;;;;;;;6.63;3.95;;;;;;;10.27;74.62;100644.78;5087555;28;20020;-32
2023/05/02 01:50:02;;;;;;;7.78;4.20;;;;;;;10.34;74.48;100632.34;5087849;28;20161;-31
2023/05/02 01:52:29;;;;;;;10.20;4.00;;;;;;;10.26;74.25;100638.63;5087363;28;20066;-33
2023/05/02 01:54:58;;;;;;;9.90;4.15;;;;;;;10.00;75.07;100639.41;5087497;28;20024;-32
2023/05/02 01:57:24;;;;;;;8.65;3.80;;;;;;;10.00;75.53;100636.72;5087521;28;20089;-32
2023/05/02 01:59:50;;;;;;;8.02;4.00;;;;;;;10.09;75.20;100632.03;5087394;28;20035;-31
2023/05/02 02:02:17;;;;;;;8.77;4.18;;;;;;;9.82;75.85;100634.63;5087447;28;20114;-31
2023/05/02 02:04:44;;;;;;;8.63;4.00;;;;;;;9.97;74.92;100637.16;5087213;28;20043;-32
2023/05/02 02:07:12;;;;;;;7.90;4.00;;;;;;;9.95;74.38;100620.53;5087491;28;20114;-32
2023/05/02 02:09:38;;;;;;;8.45;4.00;;;;;;;10.07;73.69;100626.09;5087403;28;20023;-32
2023/05/02 02:12:13;;;;;;;6.97;4.47;;;;;;;9.95;73.23;100617.88;5087025;28;20470;-31
2023/05/02 02:14:42;;;;;;;6.53;3.88;;;;;;;9.90;73.45;100625.63;5086999;28;20451;-34
2023/05/02 02:17:21;;;;;;;7.32;3.65;;;;;;;9.81;73.03;100632.19;5087201;28;20497;-31
2023/05/02 02:19:47;;;;;;;18.73;13.68;;;;;;;9.95;72.50;100631.19;5087328;28;20028;-32
2023/05/02 02:22:14;;;;;;;94.35;52.00;;;;;;;10.12;72.12;100644.16;5086996;28;20180;-32
2023/05/02 02:24:40;;;;;;;15.52;8.77;;;;;;;10.29;70.88;100642.72;5086292;28;20032;-32
2023/05/02 02:27:06;;;;;;;35.58;25.77;;;;;;;10.31;70.39;100650.56;5087000;28;20043;-31
2023/05/02 02:29:31;;;;;;;10.65;6.70;;;;;;;10.11;72.33;100655.81;5086731;28;20028;-32
2023/05/02 02:31:57;;;;;;;7.97;4.28;;;;;;;9.92;73.58;100646.75;5087075;28;20024;-33
2023/05/02 02:34:23;;;;;;;10.45;3.95;;;;;;;9.81;74.69;100648.16;5103325;28;20031;-32
2023/05/02 02:37:06;;;;;;;16.80;10.75;;;;;;;9.88;73.93;100649.00;5107207;28;20015;-31
2023/05/02 02:40:03;;;;;;;14.05;8.85;;;;;;;9.82;74.97;100644.47;5106790;28;20039;-32
2023/05/02 02:42:47;;;;;;;13.48;9.32;;;;;;;9.41;77.35;100653.28;5106878;28;20830;-31
2023/05/02 02:45:35;;;;;;;9.65;6.18;;;;;;;9.35;78.18;100646.09;5106755;28;20035;-32
2023/05/02 02:48:26;;;;;;;15.20;7.80;;;;;;;9.44;78.06;100645.75;5106867;27;21233;-31
2023/05/02 02:51:01;;;;;;;29.60;14.82;;;;;;;9.44;78.52;100647.59;5106975;27;20492;-31
2023/05/02 02:53:39;;;;;;;41.03;16.90;;;;;;;9.28;79.12;100637.28;5106924;28;20031;-31
2023/05/02 02:56:10;;;;;;;43.28;17.83;;;;;;;9.57;77.61;100634.34;5106822;28;20066;-31
2023/05/02 02:58:48;;;;;;;61.85;27.70;;;;;;;9.17;79.39;100626.13;5106840;28;20034;-33
2023/05/02 03:01:20;;;;;;;46.17;22.60;;;;;;;9.18;80.19;100629.63;5106352;27;20036;-31
2023/05/02 03:03:47;;;;;;;51.17;24.92;;;;;;;9.21;79.90;100630.06;5106634;28;20023;-32
2023/05/02 03:06:14;;;;;;;34.35;17.55;;;;;;;9.14;80.34;100641.69;5106596;28;20022;-33
2023/05/02 03:08:41;;;;;;;17.88;8.38;;;;;;;9.41;78.96;100662.09;5106208;28;20051;-32
2023/05/02 03:11:08;;;;;;;16.30;8.88;;;;;;;9.15;80.21;100654.78;5106357;28;20131;-31
2023/05/02 03:13:34;;;;;;;18.10;10.02;;;;;;;8.97;80.41;100647.31;5106257;28;20508;-31
2023/05/02 03:16:31;;;;;;;10.38;5.53;;;;;;;9.17;79.59;100663.38;5106505;28;20476;-31
2023/05/02 03:18:56;;;;;;;8.67;4.80;;;;;;;8.92;81.36;100659.53;5101964;28;20041;-31
2023/05/02 03:21:22;;;;;;;11.55;5.38;;;;;;;8.82;81.30;100660.69;5106211;28;20027;-33
2023/05/02 03:23:48;;;;;;;11.60;5.22;;;;;;;8.60;82.35;100661.72;5106445;28;20408;-31
2023/05/02 03:26:13;;;;;;;10.10;5.05;;;;;;;8.66;81.94;100666.28;5106208;28;20035;-32
2023/05/02 03:28:39;;;;;;;8.27;4.72;;;;;;;8.50;82.65;100661.22;5106505;28;20458;-32
2023/05/02 03:31:04;;;;;;;9.13;4.93;;;;;;;8.56;83.13;100671.09;5105854;28;20866;-32
2023/05/02 03:33:29;;;;;;;9.77;4.93;;;;;;;8.42;83.60;100670.97;5106333;28;20027;-32
2023/05/02 03:35:55;;;;;;;14.45;8.05;;;;;;;8.51;84.02;100673.50;5105647;28;20032;-32
2023/05/02 03:38:20;;;;;;;25.00;12.40;;;;;;;8.71;82.95;100679.84;5106580;28;20088;-32
2023/05/02 03:40:46;;;;;;;51.08;27.20;;;;;;;8.72;82.85;100686.78;5106026;28;20031;-32
2023/05/02 03:43:11;;;;;;;52.55;26.80;;;;;;;8.97;81.63;100695.19;5106041;28;20032;-32
2023/05/02 03:45:36;;;;;;;52.28;26.70;;;;;;;9.15;80.16;100702.66;5106214;28;20024;-32
2023/05/02 03:48:02;;;;;;;33.95;16.50;;;;;;;9.45;78.65;100687.31;5105979;28;20024;-31
2023/05/02 03:50:27;;;;;;;11.25;5.90;;;;;;;9.21;80.32;100707.25;5105983;28;20027;-32
2023/05/02 03:52:53;;;;;;;10.48;5.07;;;;;;;9.20;80.72;100712.75;5106045;28;20051;-31
2023/05/02 03:55:18;;;;;;;11.48;5.88;;;;;;;9.14;80.90;100724.16;5106129;28;20031;-32
2023/05/02 03:57:44;;;;;;;9.32;5.30;;;;;;;9.10;81.78;100715.75;5105803;28;20032;-32
2023/05/02 04:00:10;;;;;;;13.65;5.78;;;;;;;9.34;80.54;100719.00;5106002;28;20035;-32
2023/05/02 04:02:36;;;;;;;12.15;6.72;;;;;;;9.66;78.83;100725.53;5106152;28;20036;-31
2023/05/02 04:05:01;;;;;;;13.70;6.88;;;;;;;9.37;80.82;100726.56;5105651;28;20118;-32
2023/05/02 04:07:27;;;;;;;13.85;10.93;;;;;;;9.20;85.21;100732.19;5105710;28;20055;-32
2023/05/02 04:09:52;;;;;;;15.13;11.73;;;;;;;9.23;89.67;100734.50;5105733;28;20171;-31
2023/05/02 04:12:19;;;;;;;16.17;10.27;;;;;;;9.14;92.05;100724.16;5105978;28;20170;-32
2023/05/02 04:14:44;;;;;;;18.42;9.50;;;;;;;9.44;90.63;100730.94;5105447;28;20042;-31
2023/05/02 04:17:10;;;;;;;10.68;7.55;;;;;;;9.56;90.27;100717.91;5105580;28;20024;-32
2023/05/02 04:19:35;;;;;;;15.13;7.72;;;;;;;9.79;88.20;100725.59;5105536;28;20435;-31
2023/05/02 04:22:02;;;;;;;10.68;6.80;;;;;;;9.67;88.73;100723.69;5104158;28;20034;-32
2023/05/02 04:24:27;;;;;;;11.57;6.55;;;;;;;9.84;87.80;100723.16;5091101;28;20024;-33
2023/05/02 04:26:53;;;;;;;10.25;6.75;;;;;;;9.80;88.16;100724.56;5085133;28;20024;-32
2023/05/02 04:29:19;;;;;;;11.73;7.13;;;;;;;9.99;86.84;100723.03;5085486;28;20020;-32
2023/05/02 04:31:44;;;;;;;11.40;6.60;;;;;;;9.96;86.08;100720.75;5085413;28;20551;-32
2023/05/02 04:34:10;;;;;;;9.20;6.68;;;;;;;10.02;86.02;100724.47;5085097;28;20070;-31
2023/05/02 04:36:36;;;;;;;12.00;6.20;;;;;;;10.19;83.17;100736.41;5118028;28;20130;-32
2023/05/02 04:39:03;;;;;;;11.10;6.32;;;;;;;10.11;84.22;100733.91;5085340;28;20063;-31
2023/05/02 04:41:29;;;;;;;10.45;6.30;;;;;;;10.18;83.31;100715.31;5085356;28;20517;-31
2023/05/02 04:43:54;;;;;;;10.20;5.75;;;;;;;10.40;83.11;100722.16;5085239;28;20039;-32
2023/05/02 04:46:20;;;;;;;10.88;5.75;;;;;;;10.35;81.94;100724.59;5084954;28;20059;-33
2023/05/02 04:48:45;;;;;;;10.02;5.45;;;;;;;10.47;81.71;100734.69;5087462;28;20085;-32
2023/05/02 04:51:11;;;;;;;8.35;5.65;;;;;;;10.62;81.03;100730.00;5088907;28;20024;-32
2023/05/02 04:53:36;;;;;;;11.35;5.72;;;;;;;10.76;80.48;100729.00;5088794;28;20058;-33
2023/05/02 04:56:02;;;;;;;9.10;5.00;;;;;;;10.91;78.22;100727.97;5088959;28;20035;-32
2023/05/02 04:58:27;;;;;;;8.57;5.13;;;;;;;11.20;77.05;100729.44;5088511;28;20440;-33
2023/05/02 05:00:53;;;;;;;8.00;5.50;;;;;;;11.19;74.43;100739.25;5088798;28;20043;-31
2023/05/02 05:03:19;;;;;;;8.43;4.70;;;;;;;11.23;75.04;100740.50;5088494;28;20032;-31
2023/05/02 05:05:46;;;;;;;8.88;5.40;;;;;;;11.47;72.03;100727.53;5088669;28;20142;-32
2023/05/02 05:08:11;;;;;;;7.55;4.57;;;;;;;11.49;72.84;100741.50;5088425;28;20077;-31
2023/05/02 05:10:37;;;;;;;9.13;4.97;;;;;;;11.76;72.39;100749.44;5088283;28;20024;-32
2023/05/02 05:13:03;;;;;;;8.45;4.93;;;;;;;11.79;72.29;100749.88;5099325;28;20035;-32
2023/05/02 05:15:28;;;;;;;9.65;5.32;;;;;;;12.35;70.88;100747.63;5109019;28;20484;-32
2023/05/02 05:17:54;;;;;;;10.15;5.32;;;;;;;12.35;70.28;100748.44;5109015;28;20030;-33
2023/05/02 05:20:19;;;;;;;8.88;5.35;;;;;;;12.43;69.99;100745.50;5108493;28;20456;-32
2023/05/02 05:22:45;;;;;;;8.88;4.80;;;;;;;12.37;68.94;100737.53;5108651;28;20791;-31
2023/05/02 05:25:10;;;;;;;9.27;4.47;;;;;;;12.61;69.19;100743.97;5108546;28;20100;-32
2023/05/02 05:27:37;;;;;;;6.72;4.30;;;;;;;12.50;68.13;100736.63;5108884;28;20034;-33
2023/05/02 05:30:03;;;;;;;8.68;5.13;;;;;;;12.61;70.25;100750.13;5107984;28;20023;-31
2023/05/02 05:32:29;;;;;;;8.77;4.43;;;;;;;13.10;69.94;100744.22;5108182;28;20433;-32
2023/05/02 05:34:54;;;;;;;9.60;4.20;;;;;;;13.13;66.65;100751.81;5108297;28;20027;-32
2023/05/02 05:37:20;;;;;;;8.63;4.30;;;;;;;13.26;66.76;100752.53;5108573;28;20020;-33
2023/05/02 05:39:46;;;;;;;7.95;3.78;;;;;;;13.25;64.27;100758.91;5108167;28;20053;-32
2023/05/02 05:42:12;;;;;;;10.30;4.78;;;;;;;13.63;64.21;100766.03;5108311;28;20050;-32
2023/05/02 05:44:38;;;;;;;6.53;3.70;;;;;;;13.85;62.20;100757.53;5108343;28;20035;-31
2023/05/02 05:47:04;;;;;;;11.43;5.63;;;;;;;13.97;61.68;100763.78;5107698;28;20427;-32
2023/05/02 05:49:30;;;;;;;9.68;4.00;;;;;;;13.94;64.17;100768.81;5108066;28;20034;-34
2023/05/02 05:51:56;;;;;;;6.57;3.05;;;;;;;13.98;60.78;100772.69;5108041;28;20023;-32
2023/05/02 05:54:21;;;;;;;6.95;3.35;;;;;;;14.43;61.69;100781.19;5108109;28;20116;-31
2023/05/02 05:56:47;;;;;;;6.82;3.22;;;;;;;14.62;58.94;100776.59;5108043;28;20087;-32
2023/05/02 05:59:12;;;;;;;7.53;3.53;;;;;;;14.75;59.07;100781.00;5107327;28;20424;-32
2023/05/02 06:01:38;;;;;;;8.45;3.58;;;;;;;14.66;58.86;100766.25;5107560;28;20035;-31
2023/05/02 06:04:04;;;;;;;5.85;3.08;;;;;;;14.67;58.53;100778.63;5107727;28;20083;-32
2023/05/02 06:06:30;;;;;;;9.65;3.50;;;;;;;14.89;58.41;100780.78;5107663;28;20728;-32
2023/05/02 06:08:56;;;;;;;4.40;2.40;;;;;;;15.17;53.98;100791.69;5107549;28;20049;-31
2023/05/02 06:11:23;;;;;;;7.03;2.60;;;;;;;15.15;54.15;100784.94;5107791;28;20028;-32
2023/05/02 06:13:50;;;;;;;5.30;2.70;;;;;;;15.20;51.15;100791.25;5107217;28;20023;-32
2023/05/02 06:16:16;;;;;;;5.32;2.60;;;;;;;15.23;50.24;100782.72;5106738;28;20031;-31
2023/05/02 06:18:42;;;;;;;5.20;2.47;;;;;;;15.55;49.83;100789.63;5107430;28;20024;-32
2023/05/02 06:21:08;;;;;;;5.40;2.25;;;;;;;15.51;50.52;100781.22;5107233;28;20427;-32
2023/05/02 06:23:33;;;;;;;6.50;2.55;;;;;;;15.77;50.56;100787.19;5107578;28;20027;-31
2023/05/02 06:26:00;;;;;;;5.63;2.13;;;;;;;15.94;50.04;100788.09;5107347;28;20832;-33
2023/05/02 06:28:25;;;;;;;6.25;2.53;;;;;;;16.11;50.93;100787.38;5107109;28;20027;-32
2023/05/02 06:31:09;;;;;;;8.13;2.50;;;;;;;16.25;46.03;100791.44;5107168;28;20089;-31
2023/05/02 06:33:35;;;;;;;4.85;2.30;;;;;;;16.17;48.89;100794.50;5107270;27;20032;-32
2023/05/02 06:36:01;;;;;;;5.80;2.50;;;;;;;16.58;47.32;100789.91;5107042;28;20035;-32
2023/05/02 06:38:27;;;;;;;4.25;2.50;;;;;;;16.45;51.41;100783.75;5107102;28;20019;-33
2023/05/02 06:40:52;;;;;;;7.70;2.40;;;;;;;16.71;48.49;100781.50;5107074;28;20400;-31
2023/05/02 06:43:18;;;;;;;5.00;2.55;;;;;;;16.92;47.69;100787.28;5106035;28;20031;-32
2023/05/02 06:45:44;;;;;;;6.15;2.95;;;;;;;16.99;45.88;100785.25;5106900;28;20400;-32
2023/05/02 06:48:09;;;;;;;4.72;1.90;;;;;;;16.73;44.06;100774.00;5107075;28;20054;-33
2023/05/02 06:50:35;;;;;;;4.22;2.20;;;;;;;16.93;44.43;100789.75;5106890;28;20024;-31
2023/05/02 06:53:01;;;;;;;4.50;1.90;;;;;;;17.11;40.84;100796.78;5106967;28;20024;-32
2023/05/02 06:55:27;;;;;;;7.82;2.10;;;;;;;17.15;40.89;100776.38;5106373;28;20512;-33
2023/05/02 06:57:53;;;;;;;4.88;1.90;;;;;;;16.96;40.00;100793.81;5106899;28;20739;-33
2023/05/02 07:00:20;;;;;;;5.35;2.05;;;;;;;17.17;44.19;100790.41;5106878;28;20050;-33
2023/05/02 07:02:46;;;;;;;4.30;1.95;;;;;;;17.30;40.32;100791.16;5106677;28;20028;-32
2023/05/02 07:05:14;;;;;;;3.72;1.90;;;;;;;17.37;40.13;100789.94;5106410;28;20100;-32
2023/05/02 07:07:43;;;;;;;5.03;1.85;;;;;;;17.52;39.19;100793.91;5106313;28;20015;-32
2023/05/02 07:10:09;;;;;;;4.65;2.05;;;;;;;17.60;39.61;100799.69;5106393;28;20028;-32
2023/05/02 07:12:35;;;;;;;4.60;2.15;;;;;;;17.83;40.38;100784.41;5106407;28;20088;-32
2023/05/02 07:15:00;;;;;;;3.67;1.77;;;;;;;18.19;39.43;100799.16;5105905;28;20035;-31
2023/05/02 07:17:26;;;;;;;4.55;1.80;;;;;;;18.33;36.52;100802.31;5106714;27;20019;-32
2023/05/02 07:19:52;;;;;;;6.65;2.25;;;;;;;18.06;38.81;100792.28;5106143;28;20020;-31
2023/05/02 07:22:17;;;;;;;4.68;1.63;;;;;;;18.13;37.77;100799.38;5106740;28;20042;-32
2023/05/02 07:24:43;;;;;;;5.18;1.65;;;;;;;18.01;35.63;100800.28;5106120;28;20092;-32
2023/05/02 07:27:09;;;;;;;4.68;1.70;;;;;;;18.02;36.20;100801.94;5106067;28;20080;-33
2023/05/02 07:29:35;;;;;;;3.78;1.60;;;;;;;17.98;34.59;100787.31;5106396;28;20027;-31
2023/05/02 07:32:00;;;;;;;3.58;1.63;;;;;;;18.10;33.26;100797.97;5106339;28;20026;-32
2023/05/02 07:34:25;;;;;;;5.85;2.17;;;;;;;18.12;36.02;100792.31;5105854;28;20027;-32
2023/05/02 07:36:51;;;;;;;4.57;1.90;;;;;;;18.28;34.86;100799.53;5106251;28;20027;-31
2023/05/02 07:39:16;;;;;;;4.32;1.90;;;;;;;18.44;34.22;100798.63;5105993;28;20028;-33
2023/05/02 07:41:42;;;;;;;5.70;1.60;;;;;;;18.35;34.39;100783.97;5105849;28;20510;-31
2023/05/02 07:44:07;;;;;;;4.90;1.90;;;;;;;18.18;33.69;100804.81;5106001;28;20028;-32
2023/05/02 07:46:33;;;;;;;3.70;1.73;;;;;;;18.34;35.60;100798.53;5105855;28;20024;-31
2023/05/02 07:48:58;;;;;;;3.45;1.60;;;;;;;18.18;35.67;100807.50;5106074;28;20027;-32
2023/05/02 07:51:25;;;;;;;6.47;2.95;;;;;;;18.90;34.64;100800.19;5105985;28;20092;-32
2023/05/02 07:53:57;;;;;;;8.57;4.93;;;;;;;19.07;34.20;100799.00;5106026;28;20027;-31
2023/05/02 07:56:23;;;;;;;8.18;3.33;;;;;;;19.27;33.28;100798.38;5106278;28;20024;-32
2023/05/02 07:58:50;;;;;;;5.38;2.00;;;;;;;18.83;32.80;100785.00;5105671;28;20024;-32
2023/05/02 08:01:16;;;;;;;9.23;3.03;;;;;;;18.81;33.25;100795.25;5105950;28;20526;-32
2023/05/02 08:03:41;;;;;;;7.10;2.30;;;;;;;18.95;33.73;100797.56;5105666;28;20023;-32
2023/05/02 08:06:08;;;;;;;5.13;2.00;;;;;;;19.23;33.29;100780.22;5105897;28;20416;-32
2023/05/02 08:08:33;;;;;;;6.57;3.20;;;;;;;19.37;34.66;100796.78;5105938;28;20036;-32
2023/05/02 08:10:59;;;;;;;7.85;3.10;;;;;;;19.14;34.16;100774.47;5105318;28;20137;-32
2023/05/02 08:13:24;;;;;;;7.90;3.63;;;;;;;19.51;33.05;100803.38;5106202;28;20035;-32
2023/05/02 08:15:50;;;;;;;3.67;1.73;;;;;;;19.68;33.81;100795.94;5105798;28;20074;-34
2023/05/02 08:18:16;;;;;;;5.75;1.85;;;;;;;19.84;35.04;100788.75;5105905;28;20697;-32
2023/05/02 08:20:42;;;;;;;4.25;2.00;;;;;;;19.59;34.13;100781.25;5105383;28;20076;-33
2023/05/02 08:23:07;;;;;;;5.10;1.80;;;;;;;19.73;33.68;100786.25;5106588;28;20031;-32
2023/05/02 08:25:33;;;;;;;4.97;1.85;;;;;;;19.63;33.34;100793.19;5109822;28;20024;-32
2023/05/02 08:27:58;;;;;;;4.03;2.38;;;;;;;19.56;36.01;100786.41;5109541;28;20030;-31
2023/05/02 08:30:24;;;;;;;3.78;1.70;;;;;;;19.46;33.83;100784.44;5109462;28;20028;-32
2023/05/02 08:32:49;;;;;;;6.03;2.03;;;;;;;19.78;33.92;100783.59;5109942;28;20088;-31
2023/05/02 08:35:15;;;;;;;5.30;1.90;;;;;;;19.81;34.02;100772.22;5109513;28;20443;-32
2023/05/02 08:37:40;;;;;;;4.40;2.25;;;;;;;20.32;33.75;100777.81;5107869;28;20040;-32
2023/05/02 08:40:11;;;;;;;12.23;2.88;;;;;;;20.50;33.17;100773.81;5109241;28;20028;-32
2023/05/02 08:42:40;;;;;;;4.82;1.95;;;;;;;20.02;33.47;100776.66;5109422;27;20118;-32
2023/05/02 08:45:07;;;;;;;6.60;2.08;;;;;;;19.83;34.79;100759.22;5109130;28;20070;-31
2023/05/02 08:47:33;;;;;;;4.95;2.00;;;;;;;19.97;33.45;100775.81;5109338;28;20024;-31
2023/05/02 08:49:59;;;;;;;3.22;1.75;;;;;;;20.36;34.50;100773.50;5109258;28;20076;-32
2023/05/02 08:52:26;;;;;;;5.40;2.00;;;;;;;20.33;34.09;100779.47;5109324;28;20036;-32
2023/05/02 08:54:53;;;;;;;13.93;3.88;;;;;;;20.58;33.34;100773.31;5109127;28;20027;-32
2023/05/02 08:57:19;;;;;;;5.03;2.13;;;;;;;20.60;32.47;100767.63;5109030;27;20027;-32
2023/05/02 08:59:45;;;;;;;5.93;2.17;;;;;;;21.04;32.17;100769.81;5108899;27;20028;-33
2023/05/02 09:02:55;;;;;;;8.27;2.58;;;;;;;21.27;32.98;100788.28;5109251;28;20020;-32
2023/05/02 09:05:23;;;;;;;9.43;2.47;;;;;;;20.89;33.89;100769.84;5092745;28;20051;-32
2023/05/02 09:07:50;;;;;;;7.40;3.30;;;;;;;21.05;33.76;100757.91;5108716;28;20028;-32
2023/05/02 09:10:16;;;;;;;7.88;2.15;;;;;;;21.35;33.34;100767.09;5108243;28;20119;-31
2023/05/02 09:12:41;;;;;;;3.47;1.48;;;;;;;21.14;32.42;100745.41;5108973;28;20122;-33
2023/05/02 09:15:15;;;;;;;6.22;1.77;;;;;;;20.99;30.54;100761.72;5108271;28;20138;-32
2023/05/02 09:17:44;;;;;;;4.50;1.50;;;;;;;21.63;31.50;100769.22;5108474;28;20111;-32
2023/05/02 09:20:11;;;;;;;5.65;1.98;;;;;;;21.41;31.02;100755.97;5108739;28;20081;-32
2023/05/02 09:22:37;;;;;;;6.23;2.00;;;;;;;21.81;31.68;100758.88;5107314;28;20397;-31
2023/05/02 09:25:04;;;;;;;4.57;1.95;;;;;;;21.39;31.22;100751.88;5108437;28;20539;-32
2023/05/02 09:27:48;;;;;;;5.95;1.80;;;;;;;21.23;31.95;100732.94;5109064;28;20454;-32
2023/05/02 09:30:21;;;;;;;4.03;1.70;;;;;;;21.57;32.88;100745.91;5109335;28;20039;-32
2023/05/02 09:32:50;;;;;;;3.90;1.63;;;;;;;21.62;31.98;100751.31;5109189;28;20084;-33
2023/05/02 09:35:22;;;;;;;6.25;1.90;;;;;;;22.31;31.94;100729.84;5108759;28;20023;-31
2023/05/02 09:37:57;;;;;;;4.15;1.95;;;;;;;22.01;31.76;100731.63;5109321;28;20036;-33
2023/05/02 09:40:23;;;;;;;3.78;1.77;;;;;;;21.86;30.92;100734.41;5109178;28;20023;-33
2023/05/02 09:42:49;;;;;;;3.78;1.60;;;;;;;21.80;29.96;100732.78;5108741;28;20024;-31
2023/05/02 09:45:25;;;;;;;4.00;1.60;;;;;;;22.34;28.36;100723.06;5109407;28;20408;-31
2023/05/02 09:47:51;;;;;;;4.60;1.90;;;;;;;22.04;28.13;100714.75;5109250;28;20096;-31
2023/05/02 09:50:43;;;;;;;3.83;1.45;;;;;;;22.08;29.23;100726.69;5109108;27;20096;-32
2023/05/02 09:53:10;;;;;;;4.43;1.70;;;;;;;21.76;28.53;100723.59;5106000;28;20116;-32
2023/05/02 09:55:35;;;;;;;5.13;1.70;;;;;;;21.97;28.97;100714.28;5108871;28;20043;-31
2023/05/02 09:58:01;;;;;;;2.45;1.30;;;;;;;22.43;28.63;100721.34;5108836;28;20016;-31
2023/05/02 10:00:38;;;;;;;3.95;1.63;;;;;;;22.30;28.65;100720.09;5108608;28;20074;-33
2023/05/02 10:03:07;;;;;;;5.60;1.75;;;;;;;22.51;28.76;100711.81;5108619;28;20088;-31
2023/05/02 10:05:36;;;;;;;3.95;1.60;;;;;;;23.27;27.24;100716.59;5108580;28;20030;-31
2023/05/02 10:08:07;;;;;;;3.00;1.40;;;;;;;22.68;26.30;100717.66;5108909;28;20028;-31
2023/05/02 10:10:36;;;;;;;5.97;1.73;;;;;;;23.24;29.44;100698.13;5108473;28;20026;-32
2023/05/02 10:13:03;;;;;;;4.20;1.70;;;;;;;22.50;27.15;100688.44;5108647;28;20027;-32
2023/05/02 10:15:31;;;;;;;5.05;1.70;;;;;;;22.67;27.59;100691.56;5108318;28;20431;-31
2023/05/02 10:17:57;;;;;;;;;;;;;;;22.63;27.72;100704.09;5108783;28;20020;-32
2023/05/02 10:20:29;;;;;;;4.93;1.50;;;;;;;22.29;26.58;100694.00;5108266;28;20003;-32
2023/05/02 10:22:57;;;;;;;3.00;1.33;;;;;;;22.84;24.63;100707.44;5108409;28;20031;-31
2023/05/02 10:25:23;;;;;;;23.50;13.23;;;;;;;23.12;25.39;100694.19;5107834;28;20036;-33
2023/05/02 10:27:48;;;;;;;4.45;1.20;;;;;;;23.22;24.01;100688.63;5108356;28;20028;-32
2023/05/02 10:30:15;;;;;;;7.95;1.50;;;;;;;23.59;23.44;100692.56;5108074;28;20032;-31
2023/05/02 10:32:41;;;;;;;4.35;1.30;;;;;;;23.44;23.45;100690.84;5108338;28;20020;-33
2023/05/02 10:35:07;;;;;;;3.15;1.35;;;;;;;23.81;24.11;100694.78;5107789;28;20056;-32
2023/05/02 10:37:37;;;;;;;5.43;1.20;;;;;;;23.54;23.23;100677.13;5108091;28;20107;-32
2023/05/02 10:40:04;;;;;;;4.47;1.73;;;;;;;23.94;24.03;100674.97;5108103;28;20023;-31
2023/05/02 10:42:31;;;;;;;7.70;1.55;;;;;;;23.74;24.49;100694.28;5108013;28;20024;-32
2023/05/02 10:44:56;;;;;;;4.45;1.75;;;;;;;24.29;24.75;100683.75;5108017;28;20038;-33
2023/05/02 10:47:23;;;;;;;2.17;1.10;;;;;;;24.35;23.04;100688.00;5107315;28;20032;-31
2023/05/02 10:50:01;;;;;;;1.30;1.00;;;;;;;23.32;23.55;100679.56;5107778;28;20047;-32
2023/05/02 10:52:31;;;;;;;;;;;;;;;24.34;23.09;100680.94;5108462;28;20066;-33
2023/05/02 10:55:14;;;;;;;3.03;1.40;;;;;;;24.12;22.57;100688.91;5107851;27;20010;-32
2023/05/02 10:57:59;;;;;;;7.95;1.50;;;;;;;24.09;23.86;100679.41;5107440;28;20806;-31
2023/05/02 11:00:25;;;;;;;4.50;1.45;;;;;;;23.55;24.57;100678.72;5107948;28;20043;-32
2023/05/02 11:02:51;;;;;;;3.17;1.50;;;;;;;23.71;24.43;100678.53;5107560;28;20055;-31
2023/05/02 11:05:17;;;;;;;2.88;1.27;;;;;;;23.86;25.04;100668.28;5107388;28;20059;-32
2023/05/02 11:07:42;;;;;;;2.38;1.23;;;;;;;24.04;24.88;100683.00;5107424;28;20551;-32
2023/05/02 11:10:16;;;;;;;3.58;1.42;;;;;;;23.12;24.41;100675.13;5107379;28;20015;-32
2023/05/02 11:13:00;;;;;;;4.00;1.55;;;;;;;24.16;26.72;100665.41;5107878;28;20085;-31
2023/05/02 11:15:28;;;;;;;4.72;1.13;;;;;;;24.90;24.55;100670.25;5107071;28;20047;-32
2023/05/02 11:18:07;;;;;;;4.40;1.40;;;;;;;25.08;23.02;100665.81;5107382;28;20024;-32
2023/05/02 11:20:34;;;;;;;5.30;1.63;;;;;;;24.95;24.19;100673.69;5107185;28;20126;-32
2023/05/02 11:23:15;;;;;;;2.88;1.40;;;;;;;25.06;23.57;100663.38;5107238;28;20023;-32
2023/05/02 11:25:42;;;;;;;3.63;1.30;;;;;;;24.96;23.57;100656.19;5107062;28;20031;-32
2023/05/02 11:28:46;;;;;;;69.15;6.85;;;;;;;25.40;23.68;100670.44;5107181;28;20035;-32